CheckWX is a tool to help pilots better visualize weather data.  It is not intended as a substitute for an official pre-flight weather briefing.

14:16:00 UTC

KIFA METAR
Iowa Falls Municipal Airport
Iowa Falls, Iowa, USA
Current

21 mins ago

KIFA 221355Z AUTO 22009KT 10SM SCT110 16/13 A2986 RMK AO2 P0003 T01580131
Observed
Apr-22 @ 13:55 UTC
Wind
  • 220° at 9 KTS
Visibility
10 SM
Flight Rules
VFR
Cloud Levels
  • Scattered at 11,000' AGL
Temperature
16°C / 61°F
Dewpoint
13°C / 55°F
Humidity
83%
Altimeter
29.86" Hg
Pressure
1011.22 hPa
Current Rain
0.03"
Previous

41 mins ago

KIFA 221335Z AUTO 23008G11KT 10SM -RA SCT033 SCT055 BKN085 15/13 A2986 RMK AO2 P0003 T01530127
Observed
Apr-22 @ 13:35 UTC
Wind
  • 230° at 8 KTS
  • Gusting to 11 KTS
Visibility
10 SM
Flight Rules
VFR
Conditions
Light Rain
Cloud Levels
  • Scattered at 3,300' AGL
  • Scattered at 5,500' AGL
  • Broken at 8,500' AGL
Temperature
15°C / 59°F
Dewpoint
13°C / 55°F
Humidity
88%
Altimeter
29.86" Hg
Pressure
1011.22 hPa
Current Rain
0.03"
Previous

1 hour ago

KIFA 221315Z AUTO 23014G19KT 5SM +RA SCT038 SCT055 OVC085 17/12 A2986 RMK AO2 P0002 T01650117
Observed
Apr-22 @ 13:15 UTC
Wind
  • 230° at 14 KTS
  • Gusting to 19 KTS
Visibility
5 SM
Flight Rules
MVFR
Conditions
Heavy Rain
Cloud Levels
  • Scattered at 3,800' AGL
  • Scattered at 5,500' AGL
  • Overcast at 8,500' AGL
Temperature
17°C / 63°F
Dewpoint
12°C / 54°F
Humidity
73%
Altimeter
29.86" Hg
Pressure
1011.22 hPa
Current Rain
0.02"